createdAt,value
2022-07-26T00:00:49.506Z,8.70
2022-07-26T00:03:53.311Z,12.80
2022-07-26T00:06:56.561Z,11.00
2022-07-26T00:09:59.920Z,9.88
2022-07-26T00:13:04.698Z,10.38
2022-07-26T00:16:10.190Z,8.93
2022-07-26T00:19:13.713Z,9.50
2022-07-26T00:22:35.566Z,9.02
2022-07-26T00:25:39.774Z,9.57
2022-07-26T00:28:44.606Z,9.57
2022-07-26T00:31:50.735Z,8.38
2022-07-26T00:34:55.860Z,7.75
2022-07-26T00:37:59.565Z,8.75
2022-07-26T00:41:03.178Z,10.82
2022-07-26T00:44:08.171Z,13.75
2022-07-26T00:47:11.755Z,8.20
2022-07-26T00:50:18.091Z,10.38
2022-07-26T00:53:22.423Z,8.68
2022-07-26T00:56:28.222Z,8.07
2022-07-26T00:59:33.179Z,8.25
2022-07-26T01:02:38.917Z,9.32
2022-07-26T01:05:42.696Z,10.45
2022-07-26T01:08:46.326Z,10.60
2022-07-26T01:11:50.887Z,11.10
2022-07-26T01:14:55.684Z,9.05
2022-07-26T01:17:59.055Z,8.80
2022-07-26T01:21:09.093Z,9.80
2022-07-26T01:24:20.028Z,12.40
2022-07-26T01:27:24.680Z,9.52
2022-07-26T01:30:28.022Z,7.93
2022-07-26T01:33:31.507Z,8.90
2022-07-26T01:36:35.025Z,9.82
2022-07-26T01:39:40.037Z,8.25
2022-07-26T01:42:43.386Z,8.60
2022-07-26T01:45:47.144Z,11.98
2022-07-26T01:48:50.702Z,9.10
2022-07-26T01:51:56.564Z,7.40
2022-07-26T01:55:01.345Z,7.13
2022-07-26T01:58:05.268Z,7.80
2022-07-26T02:01:11.564Z,9.60
2022-07-26T02:04:35.908Z,7.97
2022-07-26T02:07:44.514Z,8.32
2022-07-26T02:11:04.805Z,12.07
2022-07-26T02:14:09.133Z,9.07
2022-07-26T02:17:13.673Z,8.73
2022-07-26T02:20:17.687Z,9.82
2022-07-26T02:23:23.697Z,7.43
2022-07-26T02:26:28.552Z,11.05
2022-07-26T02:29:32.380Z,7.55
2022-07-26T02:32:35.655Z,7.93
2022-07-26T02:35:41.505Z,9.50
2022-07-26T02:38:44.836Z,6.95
2022-07-26T02:41:50.463Z,11.93
2022-07-26T02:44:54.206Z,6.45
2022-07-26T02:47:57.885Z,8.05
2022-07-26T02:51:04.234Z,8.05
2022-07-26T02:54:07.846Z,6.63
2022-07-26T02:57:13.835Z,7.70
2022-07-26T03:00:19.742Z,8.68
2022-07-26T03:03:23.091Z,9.43
2022-07-26T03:06:27.720Z,12.20
2022-07-26T03:09:31.043Z,6.38
2022-07-26T03:12:35.914Z,7.25
2022-07-26T03:15:39.249Z,7.57
2022-07-26T03:18:42.559Z,13.45
2022-07-26T03:21:45.873Z,13.98
2022-07-26T03:24:49.219Z,19.63
2022-07-26T03:27:57.088Z,17.85
2022-07-26T03:31:01.468Z,20.17
2022-07-26T03:34:05.420Z,18.95
2022-07-26T03:37:09.144Z,18.80
2022-07-26T03:40:17.417Z,12.55
2022-07-26T03:43:23.376Z,17.05
2022-07-26T03:46:26.912Z,12.00
2022-07-26T03:49:30.372Z,11.00
2022-07-26T03:52:33.812Z,15.93
2022-07-26T03:56:00.013Z,16.38
2022-07-26T03:59:07.508Z,14.43
2022-07-26T04:02:10.872Z,14.73
2022-07-26T04:05:14.287Z,15.88
2022-07-26T04:08:18.261Z,16.70
2022-07-26T04:11:21.881Z,15.60
2022-07-26T04:14:31.391Z,18.85
2022-07-26T04:17:39.273Z,17.42
2022-07-26T04:20:43.005Z,15.80
2022-07-26T04:23:50.972Z,15.88
2022-07-26T04:26:54.755Z,16.85
2022-07-26T04:29:59.788Z,16.40
2022-07-26T04:33:03.485Z,18.95
2022-07-26T04:36:07.431Z,15.43
2022-07-26T04:39:11.349Z,15.00
2022-07-26T04:42:14.663Z,17.52
2022-07-26T04:45:20.134Z,16.10
2022-07-26T04:48:23.514Z,18.65
2022-07-26T04:51:26.930Z,14.75
2022-07-26T04:54:30.239Z,17.67
2022-07-26T04:57:33.527Z,15.13
2022-07-26T05:04:03.223Z,15.75
2022-07-26T05:07:06.561Z,15.82
2022-07-26T05:10:11.039Z,19.27
2022-07-26T05:13:14.470Z,15.10
2022-07-26T05:16:19.457Z,18.08
2022-07-26T05:19:23.016Z,15.43
2022-07-26T05:22:26.432Z,17.77
2022-07-26T05:25:30.074Z,18.30
2022-07-26T05:28:33.404Z,22.55
2022-07-26T05:31:38.199Z,19.67
2022-07-26T05:34:41.505Z,16.90
2022-07-26T05:37:45.002Z,20.33
2022-07-26T05:40:50.638Z,17.30
2022-07-26T05:43:54.408Z,16.88
2022-07-26T05:46:59.164Z,16.48
2022-07-26T05:50:02.859Z,16.52
2022-07-26T05:53:06.248Z,15.35
2022-07-26T05:56:10.822Z,16.08
2022-07-26T05:59:14.318Z,15.88
2022-07-26T06:02:19.121Z,18.25
2022-07-26T06:05:22.475Z,13.60
2022-07-26T06:08:26.989Z,17.42
2022-07-26T06:11:30.290Z,16.30
2022-07-26T06:14:33.612Z,16.80
2022-07-26T06:17:42.106Z,14.70
2022-07-26T06:20:47.864Z,14.52
2022-07-26T06:23:51.476Z,13.68
2022-07-26T06:26:58.109Z,14.73
2022-07-26T06:30:10.564Z,13.77
2022-07-26T06:33:15.331Z,18.67
2022-07-26T06:36:18.969Z,19.48
2022-07-26T06:39:22.441Z,15.77
2022-07-26T06:42:25.855Z,15.43
2022-07-26T06:45:29.619Z,15.68
2022-07-26T06:48:34.605Z,15.18
2022-07-26T06:51:38.529Z,15.68
2022-07-26T06:54:41.931Z,18.33
2022-07-26T06:57:50.318Z,20.65
2022-07-26T07:00:54.010Z,15.77
2022-07-26T07:03:58.865Z,18.27
2022-07-26T07:07:06.106Z,17.98
2022-07-26T07:10:10.326Z,23.10
2022-07-26T07:13:15.891Z,16.52
2022-07-26T07:16:19.249Z,15.23
2022-07-26T07:19:24.160Z,16.80
2022-07-26T07:22:27.596Z,14.13
2022-07-26T07:25:31.184Z,15.68
2022-07-26T07:28:38.501Z,15.82
2022-07-26T07:31:48.581Z,16.63
2022-07-26T07:34:54.116Z,16.65
2022-07-26T07:37:57.567Z,18.15
2022-07-26T07:41:00.908Z,15.10
2022-07-26T07:44:04.307Z,15.75
2022-07-26T07:47:09.038Z,16.00
2022-07-26T07:50:13.877Z,15.57
2022-07-26T07:53:17.345Z,15.68
2022-07-26T07:56:23.502Z,17.00
2022-07-26T07:59:27.440Z,15.32
2022-07-26T08:02:32.176Z,16.38
2022-07-26T08:05:40.420Z,15.07
2022-07-26T08:08:44.312Z,15.38
2022-07-26T08:11:50.509Z,15.95
2022-07-26T08:14:54.595Z,15.23
2022-07-26T08:17:57.954Z,16.85
2022-07-26T08:21:04.152Z,15.88
2022-07-26T08:24:08.339Z,15.02
2022-07-26T08:27:11.704Z,14.60
2022-07-26T08:30:15.426Z,17.25
2022-07-26T08:33:18.669Z,14.23
2022-07-26T08:36:23.947Z,15.15
2022-07-26T08:39:27.392Z,15.15
2022-07-26T08:42:30.789Z,15.77
2022-07-26T08:45:34.356Z,15.45
2022-07-26T08:48:38.749Z,24.20
2022-07-26T08:51:44.995Z,16.02
2022-07-26T08:54:50.499Z,17.17
2022-07-26T08:57:53.905Z,17.92
2022-07-26T09:01:08.318Z,18.92
2022-07-26T09:04:44.026Z,18.17
2022-07-26T09:07:47.509Z,16.83
2022-07-26T09:10:50.901Z,15.52
2022-07-26T09:13:56.372Z,19.17
2022-07-26T09:17:00.966Z,15.90
2022-07-26T09:20:14.500Z,16.27
2022-07-26T09:23:19.370Z,15.90
2022-07-26T09:26:22.852Z,14.60
2022-07-26T09:29:26.224Z,18.70
2022-07-26T09:32:29.662Z,20.33
2022-07-26T09:35:51.040Z,20.70
2022-07-26T09:38:59.215Z,16.48
2022-07-26T09:45:34.654Z,16.80
2022-07-26T09:49:09.251Z,15.35
2022-07-26T09:52:02.977Z,14.05
2022-07-26T09:55:09.407Z,15.30
2022-07-26T09:58:14.649Z,15.93
2022-07-26T10:01:18.065Z,15.27
2022-07-26T10:04:23.374Z,14.35
2022-07-26T10:07:26.758Z,14.23
2022-07-26T10:10:34.819Z,13.57
2022-07-26T10:13:39.757Z,15.23
2022-07-26T10:16:43.130Z,13.93
2022-07-26T10:19:47.532Z,12.60
2022-07-26T10:22:51.228Z,13.65
2022-07-26T10:25:56.004Z,15.15
2022-07-26T10:29:25.859Z,12.27
2022-07-26T10:32:33.060Z,14.75
2022-07-26T10:35:40.869Z,14.85
2022-07-26T10:38:59.765Z,14.50
2022-07-26T10:42:06.587Z,12.10
2022-07-26T10:45:18.883Z,12.07
2022-07-26T10:48:24.962Z,13.73
2022-07-26T10:51:30.938Z,11.77
2022-07-26T10:54:34.312Z,11.77
2022-07-26T10:57:40.394Z,11.32
2022-07-26T11:00:56.205Z,11.43
2022-07-26T11:03:59.739Z,11.70
2022-07-26T11:07:03.139Z,10.68
2022-07-26T11:10:07.141Z,13.18
2022-07-26T11:13:19.665Z,16.73
2022-07-26T11:16:23.530Z,11.30
2022-07-26T11:19:29.414Z,16.65
2022-07-26T11:22:33.067Z,12.65
2022-07-26T11:25:36.333Z,10.77
2022-07-26T11:28:55.352Z,12.63
2022-07-26T11:32:04.654Z,10.98
2022-07-26T11:35:19.895Z,14.35
2022-07-26T11:38:24.546Z,9.90
2022-07-26T11:41:34.563Z,9.30
2022-07-26T11:44:44.290Z,10.32
2022-07-26T11:47:48.087Z,9.70
2022-07-26T11:50:51.616Z,9.45
2022-07-26T11:53:59.866Z,9.65
2022-07-26T11:57:05.998Z,8.70
2022-07-26T12:00:12.639Z,10.13
2022-07-26T12:03:15.967Z,10.98
2022-07-26T12:06:20.964Z,12.20
2022-07-26T12:09:32.728Z,10.88
2022-07-26T12:12:36.161Z,10.30
2022-07-26T12:15:48.498Z,10.02
2022-07-26T12:18:52.789Z,9.50
2022-07-26T12:21:58.508Z,10.07
2022-07-26T12:25:02.243Z,13.15
2022-07-26T12:28:07.769Z,12.52
2022-07-26T12:31:25.689Z,10.30
2022-07-26T12:34:29.124Z,9.93
2022-07-26T12:37:40.401Z,10.25
2022-07-26T12:40:44.356Z,12.27
2022-07-26T12:43:49.863Z,10.50
2022-07-26T12:46:54.664Z,10.13
2022-07-26T12:49:57.996Z,10.98
2022-07-26T12:53:02.894Z,11.68
2022-07-26T12:56:06.762Z,10.20
2022-07-26T12:59:12.281Z,10.23
2022-07-26T13:02:23.367Z,10.73
2022-07-26T13:05:27.034Z,10.75
2022-07-26T13:08:36.411Z,10.15
2022-07-26T13:11:39.756Z,10.70
2022-07-26T13:14:43.343Z,10.73
2022-07-26T13:17:48.094Z,10.52
2022-07-26T13:20:51.573Z,12.10
2022-07-26T13:23:54.978Z,10.45
2022-07-26T13:27:00.396Z,11.40
2022-07-26T13:30:03.762Z,10.63
2022-07-26T13:33:08.505Z,10.95
2022-07-26T13:36:11.832Z,10.98
2022-07-26T13:39:15.227Z,9.82
2022-07-26T13:42:19.461Z,14.88
2022-07-26T13:45:22.837Z,10.63
2022-07-26T13:48:29.257Z,12.13
2022-07-26T13:51:51.700Z,11.63
2022-07-26T13:54:55.141Z,10.93
2022-07-26T13:57:58.633Z,11.20
2022-07-26T14:01:03.349Z,10.23
2022-07-26T14:04:10.194Z,11.10
2022-07-26T14:07:13.857Z,12.63
2022-07-26T14:10:17.212Z,10.05
2022-07-26T14:13:20.634Z,10.65
2022-07-26T14:16:27.631Z,11.15
2022-07-26T14:19:32.461Z,10.27
2022-07-26T14:22:35.861Z,10.85
2022-07-26T14:25:39.144Z,10.90
2022-07-26T14:28:45.070Z,11.98
2022-07-26T14:31:48.327Z,11.05
2022-07-26T14:34:53.083Z,9.73
2022-07-26T14:37:56.544Z,10.30
2022-07-26T14:41:01.216Z,12.45
2022-07-26T14:44:05.577Z,10.82
2022-07-26T14:47:08.892Z,10.73
2022-07-26T14:50:15.826Z,13.02
2022-07-26T14:53:19.787Z,11.23
2022-07-26T14:56:23.491Z,10.48
2022-07-26T14:59:26.854Z,11.27
2022-07-26T15:02:30.251Z,10.95
2022-07-26T15:05:35.241Z,10.60
2022-07-26T15:08:38.628Z,10.23
2022-07-26T15:11:42.046Z,12.15
2022-07-26T15:14:46.281Z,13.55
2022-07-26T15:17:49.565Z,10.70
2022-07-26T15:20:54.359Z,10.93
2022-07-26T15:23:57.679Z,11.93
2022-07-26T15:27:01.024Z,12.93
2022-07-26T15:30:10.255Z,11.23
2022-07-26T15:33:18.237Z,13.93
2022-07-26T15:36:22.878Z,11.13
2022-07-26T15:39:26.315Z,10.38
2022-07-26T15:42:32.155Z,11.02
2022-07-26T15:45:37.497Z,12.55
2022-07-26T15:48:41.015Z,10.63
2022-07-26T15:51:46.061Z,10.73
2022-07-26T15:54:49.551Z,11.25
2022-07-26T15:57:52.834Z,10.70
2022-07-26T16:00:56.173Z,11.02
2022-07-26T16:03:59.568Z,9.82
2022-07-26T16:07:04.423Z,10.43
2022-07-26T16:10:08.987Z,9.68
2022-07-26T16:13:12.387Z,10.50
2022-07-26T16:16:15.884Z,9.50
2022-07-26T16:19:19.344Z,10.25
2022-07-26T16:22:24.408Z,11.02
2022-07-26T16:25:27.888Z,9.70
2022-07-26T16:28:31.231Z,16.90
2022-07-26T16:31:34.703Z,11.80
2022-07-26T16:34:38.232Z,9.77
2022-07-26T16:37:43.037Z,8.93
2022-07-26T16:40:46.353Z,11.82
2022-07-26T16:43:50.634Z,24.55
2022-07-26T16:46:54.202Z,15.48
2022-07-26T16:49:57.642Z,12.75
2022-07-26T16:53:02.487Z,13.02
2022-07-26T16:56:06.374Z,10.52
2022-07-26T16:59:10.631Z,10.20
2022-07-26T17:02:14.228Z,14.93
2022-07-26T17:05:17.604Z,14.32
2022-07-26T17:08:22.964Z,26.40
2022-07-26T17:11:26.265Z,17.52
2022-07-26T17:14:29.685Z,14.73
2022-07-26T17:17:32.996Z,11.32
2022-07-26T17:20:36.384Z,20.65
2022-07-26T17:23:41.173Z,13.60
2022-07-26T17:26:44.518Z,15.02
2022-07-26T17:29:48.051Z,11.23
2022-07-26T17:32:52.276Z,11.13
2022-07-26T17:35:56.508Z,17.38
2022-07-26T17:39:06.063Z,14.50
2022-07-26T17:42:11.777Z,13.30
2022-07-26T17:45:18.291Z,20.35
2022-07-26T17:48:21.571Z,22.08
2022-07-26T17:51:24.845Z,14.68
2022-07-26T17:54:29.593Z,16.52
2022-07-26T17:57:32.958Z,18.02
2022-07-26T18:00:36.420Z,12.43
2022-07-26T18:03:39.874Z,14.93
2022-07-26T18:06:43.602Z,12.25
2022-07-26T18:09:48.365Z,14.75
2022-07-26T18:12:51.664Z,12.82
2022-07-26T18:15:55.352Z,13.55
2022-07-26T18:18:58.750Z,11.60
2022-07-26T18:22:05.908Z,11.80
2022-07-26T18:25:11.775Z,16.38
2022-07-26T18:28:16.071Z,19.15
2022-07-26T18:31:19.731Z,13.82
2022-07-26T18:34:23.152Z,12.75
2022-07-26T18:37:26.546Z,16.23
2022-07-26T18:40:32.399Z,17.27
2022-07-26T18:43:35.797Z,14.98
2022-07-26T18:46:39.204Z,20.23
2022-07-26T18:49:43.574Z,17.67
2022-07-26T18:52:47.376Z,13.93
2022-07-26T18:55:52.305Z,13.88
2022-07-26T18:58:55.767Z,16.50
2022-07-26T19:02:00.309Z,13.27
2022-07-26T19:05:04.035Z,16.25
2022-07-26T19:08:07.453Z,16.70
2022-07-26T19:11:12.140Z,16.73
2022-07-26T19:14:15.512Z,13.80
2022-07-26T19:17:18.804Z,15.10
2022-07-26T19:20:22.234Z,15.40
2022-07-26T19:23:25.578Z,15.65
2022-07-26T19:26:31.153Z,16.95
2022-07-26T19:29:34.502Z,16.33
2022-07-26T19:32:38.627Z,15.07
2022-07-26T19:35:41.940Z,15.63
2022-07-26T19:38:45.346Z,15.55
2022-07-26T19:41:59.729Z,21.83
2022-07-26T19:45:03.518Z,20.23
2022-07-26T19:48:07.821Z,19.05
2022-07-26T19:51:11.166Z,26.13
2022-07-26T19:54:14.623Z,26.92
2022-07-26T19:57:19.927Z,20.27
2022-07-26T20:00:23.757Z,15.45
2022-07-26T20:03:27.090Z,14.35
2022-07-26T20:06:30.660Z,12.63
2022-07-26T20:09:36.565Z,13.48
2022-07-26T20:12:42.649Z,12.35
2022-07-26T20:15:47.171Z,14.90
2022-07-26T20:18:50.476Z,14.43
2022-07-26T20:21:53.798Z,13.73
2022-07-26T20:24:57.205Z,19.60
2022-07-26T20:28:01.952Z,13.98
2022-07-26T20:31:05.327Z,19.30
2022-07-26T20:34:08.672Z,14.30
2022-07-26T20:37:11.997Z,15.65
2022-07-26T20:40:17.733Z,18.60
2022-07-26T20:43:22.944Z,16.38
2022-07-26T20:46:26.293Z,18.92
2022-07-26T20:49:29.953Z,18.50
2022-07-26T20:52:33.317Z,21.10
2022-07-26T20:55:37.178Z,21.98
2022-07-26T20:58:42.010Z,17.08
2022-07-26T21:01:45.311Z,21.50
2022-07-26T21:04:48.510Z,21.15
2022-07-26T21:07:58.707Z,18.25
2022-07-26T21:11:03.013Z,17.63
2022-07-26T21:14:07.621Z,19.10
2022-07-26T21:17:12.243Z,18.23
2022-07-26T21:20:15.812Z,20.20
2022-07-26T21:23:19.086Z,23.15
2022-07-26T21:26:23.443Z,18.73
2022-07-26T21:29:27.992Z,11.93
2022-07-26T21:32:31.919Z,14.60
2022-07-26T21:35:35.212Z,13.18
2022-07-26T21:38:38.400Z,15.50
2022-07-26T21:41:41.593Z,10.90
2022-07-26T21:44:46.190Z,12.77
2022-07-26T21:47:49.351Z,17.98
2022-07-26T21:50:52.619Z,12.60
2022-07-26T21:53:55.863Z,11.82
2022-07-26T21:56:59.035Z,13.18
2022-07-26T22:00:03.636Z,11.55
2022-07-26T22:03:10.270Z,12.18
2022-07-26T22:06:13.499Z,12.02
2022-07-26T22:09:16.714Z,14.45
2022-07-26T22:12:19.888Z,14.18
2022-07-26T22:15:24.568Z,16.00
2022-07-26T22:18:28.044Z,19.10
2022-07-26T22:21:31.327Z,22.27
2022-07-26T22:24:34.574Z,16.92
2022-07-26T22:27:37.809Z,15.18
2022-07-26T22:30:42.771Z,16.70
2022-07-26T22:33:45.969Z,19.50
2022-07-26T22:36:49.126Z,18.80
2022-07-26T22:39:52.294Z,14.90
2022-07-26T22:42:58.524Z,18.67
2022-07-26T22:46:03.121Z,17.02
2022-07-26T22:49:06.484Z,16.52
2022-07-26T22:52:15.518Z,16.08
2022-07-26T22:55:18.777Z,15.82
2022-07-26T22:58:22.018Z,19.23
2022-07-26T23:01:26.703Z,19.08
2022-07-26T23:04:29.989Z,18.92
2022-07-26T23:07:52.148Z,18.88
2022-07-26T23:10:55.874Z,15.35
2022-07-26T23:13:59.319Z,20.00
2022-07-26T23:17:04.039Z,16.02
2022-07-26T23:20:09.385Z,16.25
2022-07-26T23:23:12.638Z,13.15
2022-07-26T23:26:15.896Z,12.00
2022-07-26T23:29:19.377Z,11.85
2022-07-26T23:32:24.020Z,13.10
2022-07-26T23:35:27.260Z,16.80
2022-07-26T23:38:30.495Z,15.35
2022-07-26T23:41:33.933Z,11.82
2022-07-26T23:44:38.446Z,10.82
2022-07-26T23:47:43.124Z,11.30
2022-07-26T23:50:46.475Z,13.40
2022-07-26T23:53:49.883Z,11.73
2022-07-26T23:56:53.296Z,12.90
2022-07-26T23:59:56.646Z,13.45
